createdAt,value
2022-07-28T00:00:39.091Z,0.00
2022-07-28T00:01:39.160Z,0.00
2022-07-28T00:02:39.127Z,0.00
2022-07-28T00:03:39.080Z,0.00
2022-07-28T00:04:39.081Z,0.00
2022-07-28T00:05:39.105Z,0.00
2022-07-28T00:06:39.085Z,0.00
2022-07-28T00:07:39.112Z,0.00
2022-07-28T00:08:39.090Z,0.00
2022-07-28T00:09:39.096Z,0.00
2022-07-28T00:10:39.113Z,0.00
2022-07-28T00:11:51.987Z,0.00
2022-07-28T00:12:39.114Z,0.00
2022-07-28T00:13:39.104Z,0.00
2022-07-28T00:14:39.111Z,0.00
2022-07-28T00:15:39.098Z,0.00
2022-07-28T00:16:39.168Z,0.00
2022-07-28T00:17:39.103Z,0.00
2022-07-28T00:18:39.114Z,0.00
2022-07-28T00:19:39.131Z,0.00
2022-07-28T00:20:39.118Z,0.00
2022-07-28T00:21:39.114Z,0.00
2022-07-28T00:22:39.116Z,0.00
2022-07-28T00:23:39.876Z,0.00
2022-07-28T00:24:39.135Z,0.00
2022-07-28T00:25:39.122Z,0.00
2022-07-28T00:26:39.131Z,0.00
2022-07-28T00:27:39.156Z,0.00
2022-07-28T00:28:39.126Z,0.00
2022-07-28T00:29:49.244Z,0.00
2022-07-28T00:30:39.129Z,0.00
2022-07-28T00:31:39.203Z,0.00
2022-07-28T00:32:39.168Z,0.00
2022-07-28T00:33:39.153Z,0.00
2022-07-28T00:34:39.150Z,0.00
2022-07-28T00:35:39.161Z,0.00
2022-07-28T00:36:39.142Z,0.00
2022-07-28T00:37:39.971Z,0.00
2022-07-28T00:38:40.783Z,0.00
2022-07-28T00:39:39.157Z,0.00
2022-07-28T00:40:39.179Z,0.00
2022-07-28T00:41:39.159Z,0.00
2022-07-28T00:42:39.157Z,0.00
2022-07-28T00:43:39.178Z,0.00
2022-07-28T00:44:39.213Z,0.00
2022-07-28T00:45:39.186Z,0.00
2022-07-28T00:46:39.266Z,0.00
2022-07-28T00:47:39.161Z,0.00
2022-07-28T00:48:39.278Z,0.00
2022-07-28T00:49:39.167Z,0.00
2022-07-28T00:50:39.166Z,0.00
2022-07-28T00:51:39.191Z,0.00
2022-07-28T00:52:39.176Z,0.00
2022-07-28T00:53:39.172Z,0.00
2022-07-28T00:54:39.192Z,0.00
2022-07-28T00:56:03.344Z,0.00
2022-07-28T00:56:39.194Z,0.00
2022-07-28T00:57:39.190Z,0.00
2022-07-28T00:58:39.190Z,0.00
2022-07-28T00:59:39.185Z,0.00
2022-07-28T01:00:39.207Z,0.00
2022-07-28T01:01:39.430Z,0.00
2022-07-28T01:02:39.264Z,0.00
2022-07-28T01:03:39.217Z,0.00
2022-07-28T01:04:39.188Z,0.00
2022-07-28T01:05:43.330Z,0.00
2022-07-28T01:06:39.192Z,0.00
2022-07-28T01:07:39.203Z,0.00
2022-07-28T01:08:39.195Z,0.00
2022-07-28T01:09:39.235Z,0.00
2022-07-28T01:10:39.211Z,0.00
2022-07-28T01:11:42.794Z,0.00
2022-07-28T01:12:39.211Z,0.00
2022-07-28T01:13:39.236Z,0.00
2022-07-28T01:14:39.209Z,0.00
2022-07-28T01:15:39.266Z,0.00
2022-07-28T01:16:39.219Z,0.00
2022-07-28T01:17:39.207Z,0.00
2022-07-28T01:18:39.216Z,0.00
2022-07-28T01:19:39.209Z,0.00
2022-07-28T01:20:39.204Z,0.00
2022-07-28T01:21:39.218Z,0.00
2022-07-28T01:22:39.206Z,0.00
2022-07-28T01:23:39.239Z,0.00
2022-07-28T01:24:39.220Z,0.00
2022-07-28T01:25:39.216Z,0.00
2022-07-28T01:26:39.226Z,0.00
2022-07-28T01:27:39.215Z,0.00
2022-07-28T01:28:39.226Z,0.00
2022-07-28T01:29:39.260Z,0.00
2022-07-28T01:30:39.222Z,0.00
2022-07-28T01:31:39.286Z,0.00
2022-07-28T01:32:39.238Z,0.00
2022-07-28T01:33:39.224Z,0.00
2022-07-28T01:34:39.244Z,0.00
2022-07-28T01:37:10.802Z,0.00
2022-07-28T01:38:10.793Z,0.00
2022-07-28T01:39:10.804Z,0.00
2022-07-28T01:40:10.802Z,0.00
2022-07-28T01:41:10.792Z,0.00
2022-07-28T01:42:10.792Z,0.00
2022-07-28T01:43:13.206Z,0.00
2022-07-28T01:44:11.097Z,0.00
2022-07-28T01:45:10.794Z,0.00
2022-07-28T01:46:10.847Z,0.00
2022-07-28T01:47:10.813Z,0.00
2022-07-28T01:48:10.839Z,0.00
2022-07-28T01:49:10.914Z,0.00
2022-07-28T01:50:10.839Z,0.00
2022-07-28T01:51:10.809Z,0.00
2022-07-28T01:52:10.814Z,0.00
2022-07-28T01:53:10.832Z,0.00
2022-07-28T01:54:11.136Z,0.00
2022-07-28T01:55:10.827Z,0.00
2022-07-28T01:56:10.820Z,0.00
2022-07-28T01:57:10.818Z,0.00
2022-07-28T01:58:10.827Z,0.00
2022-07-28T01:59:10.839Z,0.00
2022-07-28T02:00:10.841Z,0.00
2022-07-28T02:01:10.882Z,0.00
2022-07-28T02:02:10.833Z,0.00
2022-07-28T02:03:10.855Z,0.00
2022-07-28T02:04:11.209Z,0.00
2022-07-28T02:05:10.926Z,0.00
2022-07-28T02:06:10.843Z,0.00
2022-07-28T02:07:10.844Z,0.00
2022-07-28T02:08:10.843Z,0.00
2022-07-28T02:09:10.847Z,0.00
2022-07-28T02:10:10.855Z,0.00
2022-07-28T02:11:10.836Z,0.00
2022-07-28T02:12:10.843Z,0.00
2022-07-28T02:13:10.855Z,0.00
2022-07-28T02:14:11.124Z,0.00
2022-07-28T02:15:10.864Z,0.00
2022-07-28T02:16:10.940Z,0.00
2022-07-28T02:17:10.875Z,0.00
2022-07-28T02:18:10.849Z,0.00
2022-07-28T02:19:10.848Z,0.00
2022-07-28T02:20:10.856Z,0.00
2022-07-28T02:21:10.854Z,0.00
2022-07-28T02:22:10.869Z,0.00
2022-07-28T02:23:10.855Z,0.00
2022-07-28T02:24:11.267Z,0.00
2022-07-28T02:25:10.850Z,0.00
2022-07-28T02:26:10.860Z,0.00
2022-07-28T02:27:10.890Z,0.00
2022-07-28T02:28:10.870Z,0.00
2022-07-28T02:29:27.381Z,0.00
2022-07-28T02:30:10.859Z,0.00
2022-07-28T02:31:10.899Z,0.00
2022-07-28T02:32:10.902Z,0.00
2022-07-28T02:33:11.323Z,0.00
2022-07-28T02:34:10.930Z,0.00
2022-07-28T02:35:10.862Z,0.00
2022-07-28T02:36:10.882Z,0.00
2022-07-28T02:37:10.880Z,0.00
2022-07-28T02:38:10.870Z,0.00
2022-07-28T02:39:10.878Z,0.00
2022-07-28T02:40:10.878Z,0.00
2022-07-28T02:41:10.876Z,0.00
2022-07-28T02:42:10.883Z,0.00
2022-07-28T02:43:10.882Z,0.00
2022-07-28T02:44:11.208Z,0.00
2022-07-28T02:45:10.877Z,0.00
2022-07-28T02:46:10.928Z,0.00
2022-07-28T02:47:10.883Z,0.00
2022-07-28T02:48:10.888Z,0.00
2022-07-28T02:49:10.953Z,0.00
2022-07-28T02:50:10.888Z,0.00
2022-07-28T02:51:10.883Z,0.00
2022-07-28T02:52:10.890Z,0.00
2022-07-28T02:53:15.456Z,0.00
2022-07-28T02:54:11.247Z,0.00
2022-07-28T02:55:10.909Z,0.00
2022-07-28T02:56:10.888Z,4.00
2022-07-28T02:57:10.885Z,0.00
2022-07-28T02:58:10.892Z,0.00
2022-07-28T02:59:10.897Z,0.00
2022-07-28T03:00:10.917Z,4.00
2022-07-28T03:01:10.926Z,4.00
2022-07-28T03:02:10.914Z,0.00
2022-07-28T03:03:10.932Z,4.00
2022-07-28T03:04:11.159Z,4.00
2022-07-28T03:05:11.380Z,4.00
2022-07-28T03:06:10.909Z,4.00
2022-07-28T03:07:11.306Z,4.00
2022-07-28T03:08:10.896Z,4.00
2022-07-28T03:09:10.922Z,4.00
2022-07-28T03:10:10.899Z,8.00
2022-07-28T03:11:10.903Z,8.00
2022-07-28T03:12:10.899Z,8.00
2022-07-28T03:13:10.918Z,8.00
2022-07-28T03:14:11.184Z,12.00
2022-07-28T03:15:10.908Z,12.00
2022-07-28T03:16:10.926Z,16.00
2022-07-28T03:17:10.964Z,12.00
2022-07-28T03:18:10.918Z,12.00
2022-07-28T03:19:10.923Z,16.00
2022-07-28T03:20:10.942Z,20.00
2022-07-28T03:21:10.923Z,20.00
2022-07-28T03:22:10.913Z,20.00
2022-07-28T03:23:10.915Z,20.00
2022-07-28T03:24:11.243Z,24.00
2022-07-28T03:25:10.920Z,24.00
2022-07-28T03:26:10.941Z,28.00
2022-07-28T03:27:10.942Z,28.00
2022-07-28T03:28:10.941Z,32.00
2022-07-28T03:29:10.954Z,32.00
2022-07-28T03:30:10.935Z,36.00
2022-07-28T03:31:11.056Z,36.00
2022-07-28T03:32:10.943Z,40.00
2022-07-28T03:33:10.920Z,44.00
2022-07-28T03:34:11.425Z,44.00
2022-07-28T03:35:10.927Z,48.00
2022-07-28T03:36:10.940Z,48.00
2022-07-28T03:37:10.936Z,52.00
2022-07-28T03:38:10.925Z,56.00
2022-07-28T03:39:10.941Z,56.00
2022-07-28T03:40:10.938Z,60.00
2022-07-28T03:41:10.929Z,60.00
2022-07-28T03:42:10.941Z,60.00
2022-07-28T03:43:10.947Z,64.00
2022-07-28T03:44:11.255Z,68.00
2022-07-28T03:45:10.949Z,72.00
2022-07-28T03:46:13.354Z,76.00
2022-07-28T03:47:10.951Z,76.00
2022-07-28T03:48:10.944Z,76.00
2022-07-28T03:49:10.973Z,84.00
2022-07-28T03:50:10.942Z,84.00
2022-07-28T03:51:10.967Z,88.00
2022-07-28T03:52:10.969Z,88.00
2022-07-28T03:53:10.943Z,96.00
2022-07-28T03:54:11.257Z,96.00
2022-07-28T03:55:10.954Z,100.00
2022-07-28T03:56:10.953Z,100.00
2022-07-28T03:57:10.954Z,104.00
2022-07-28T03:58:10.960Z,108.00
2022-07-28T03:59:10.945Z,108.00
2022-07-28T04:00:10.955Z,108.00
2022-07-28T04:01:11.080Z,116.00
2022-07-28T04:02:11.071Z,116.00
2022-07-28T04:03:36.699Z,116.00
2022-07-28T04:04:11.173Z,124.00
2022-07-28T04:05:10.950Z,124.00
2022-07-28T04:06:10.966Z,124.00
2022-07-28T04:07:10.953Z,132.00
2022-07-28T04:08:10.976Z,132.00
2022-07-28T04:09:10.970Z,132.00
2022-07-28T04:10:10.957Z,136.00
2022-07-28T04:11:10.965Z,136.00
2022-07-28T04:12:10.978Z,140.00
2022-07-28T04:13:11.012Z,144.00
2022-07-28T04:14:16.200Z,148.00
2022-07-28T04:15:10.972Z,148.00
2022-07-28T04:16:10.969Z,152.00
2022-07-28T04:17:11.013Z,152.00
2022-07-28T04:18:10.981Z,156.00
2022-07-28T04:19:10.978Z,160.00
2022-07-28T04:20:10.964Z,160.00
2022-07-28T04:21:10.965Z,164.00
2022-07-28T04:22:10.967Z,164.00
2022-07-28T04:23:10.979Z,168.00
2022-07-28T04:24:10.987Z,168.00
2022-07-28T04:25:10.975Z,172.00
2022-07-28T04:26:10.966Z,176.00
2022-07-28T04:27:10.981Z,180.00
2022-07-28T04:28:10.980Z,180.00
2022-07-28T04:29:11.011Z,180.00
2022-07-28T04:30:10.970Z,184.00
2022-07-28T04:31:11.056Z,184.00
2022-07-28T04:32:10.985Z,188.00
2022-07-28T04:33:10.981Z,192.00
2022-07-28T04:34:11.313Z,196.00
2022-07-28T04:35:14.105Z,196.00
2022-07-28T04:36:10.982Z,196.00
2022-07-28T04:37:10.979Z,200.00
2022-07-28T04:38:11.002Z,204.00
2022-07-28T04:39:10.990Z,208.00
2022-07-28T04:40:10.999Z,212.00
2022-07-28T04:41:11.007Z,208.00
2022-07-28T04:42:10.996Z,212.00
2022-07-28T04:43:10.981Z,216.00
2022-07-28T04:44:11.200Z,216.00
2022-07-28T04:45:10.986Z,216.00
2022-07-28T04:46:14.948Z,220.00
2022-07-28T04:47:10.997Z,224.00
2022-07-28T04:48:10.987Z,224.00
2022-07-28T04:49:11.080Z,224.00
2022-07-28T04:50:10.991Z,228.00
2022-07-28T04:51:11.012Z,232.00
2022-07-28T04:52:11.005Z,232.00
2022-07-28T04:53:10.990Z,232.00
2022-07-28T04:54:11.360Z,236.00
2022-07-28T04:55:10.999Z,240.00
2022-07-28T04:56:11.002Z,244.00
2022-07-28T04:57:12.760Z,240.00
2022-07-28T04:58:11.005Z,248.00
2022-07-28T04:59:11.001Z,248.00
2022-07-28T05:00:11.003Z,248.00
2022-07-28T05:01:11.057Z,252.00
2022-07-28T05:02:11.015Z,252.00
2022-07-28T05:03:11.017Z,256.00
2022-07-28T05:04:11.297Z,256.00
2022-07-28T05:05:11.124Z,260.00
2022-07-28T05:06:11.016Z,264.00
2022-07-28T05:07:12.735Z,264.00
2022-07-28T05:08:11.044Z,268.00
2022-07-28T05:09:11.014Z,272.00
2022-07-28T05:10:11.031Z,272.00
2022-07-28T05:11:11.016Z,276.00
2022-07-28T05:12:11.018Z,280.00
2022-07-28T05:13:11.038Z,284.00
2022-07-28T05:14:12.589Z,284.00
2022-07-28T05:15:11.005Z,292.00
2022-07-28T05:16:11.032Z,296.00
2022-07-28T05:17:11.018Z,300.00
2022-07-28T05:18:11.018Z,296.00
2022-07-28T05:19:11.036Z,304.00
2022-07-28T05:20:11.019Z,300.00
2022-07-28T05:21:11.012Z,300.00
2022-07-28T05:22:11.016Z,304.00
2022-07-28T05:23:11.031Z,308.00
2022-07-28T05:24:11.309Z,316.00
2022-07-28T05:25:11.024Z,320.00
2022-07-28T05:26:11.030Z,324.00
2022-07-28T05:27:11.019Z,328.00
2022-07-28T05:28:11.021Z,336.00
2022-07-28T05:29:11.020Z,340.00
2022-07-28T05:30:11.040Z,348.00
2022-07-28T05:31:11.064Z,352.00
2022-07-28T05:32:17.198Z,348.00
2022-07-28T05:33:11.036Z,348.00
2022-07-28T05:34:11.200Z,352.00
2022-07-28T05:35:11.052Z,348.00
2022-07-28T05:36:11.048Z,348.00
2022-07-28T05:37:11.056Z,344.00
2022-07-28T05:38:11.326Z,348.00
2022-07-28T05:39:11.051Z,348.00
2022-07-28T05:40:11.056Z,352.00
2022-07-28T05:41:11.075Z,352.00
2022-07-28T05:42:11.058Z,352.00
2022-07-28T05:43:11.049Z,360.00
2022-07-28T05:44:11.311Z,360.00
2022-07-28T05:45:15.098Z,364.00
2022-07-28T05:46:11.210Z,368.00
2022-07-28T05:47:11.082Z,376.00
2022-07-28T05:48:11.051Z,376.00
2022-07-28T05:49:11.156Z,380.00
2022-07-28T05:50:11.057Z,388.00
2022-07-28T05:51:11.075Z,396.00
2022-07-28T05:52:11.057Z,396.00
2022-07-28T05:53:11.080Z,400.00
2022-07-28T05:54:11.417Z,404.00
2022-07-28T05:55:11.074Z,408.00
2022-07-28T05:56:11.066Z,412.00
2022-07-28T05:57:11.087Z,408.00
2022-07-28T05:58:11.066Z,408.00
2022-07-28T05:59:11.101Z,428.00
2022-07-28T06:00:11.093Z,460.00
2022-07-28T06:01:11.144Z,468.00
2022-07-28T06:02:11.161Z,468.00
2022-07-28T06:03:11.077Z,496.00
2022-07-28T06:04:27.208Z,520.00
2022-07-28T06:05:11.111Z,536.00
2022-07-28T06:06:15.784Z,560.00
2022-07-28T06:07:11.094Z,596.00
2022-07-28T06:08:11.095Z,616.00
2022-07-28T06:09:11.089Z,620.00
2022-07-28T06:10:11.094Z,632.00
2022-07-28T06:11:11.091Z,648.00
2022-07-28T06:12:11.109Z,672.00
2022-07-28T06:13:11.094Z,692.00
2022-07-28T06:14:11.443Z,712.00
2022-07-28T06:15:11.097Z,764.00
2022-07-28T06:16:13.316Z,816.00
2022-07-28T06:17:11.120Z,852.00
2022-07-28T06:18:11.100Z,896.00
2022-07-28T06:19:11.116Z,888.00
2022-07-28T06:20:11.118Z,892.00
2022-07-28T06:21:11.119Z,932.00
2022-07-28T06:22:11.124Z,944.00
2022-07-28T06:23:11.130Z,956.00
2022-07-28T06:24:11.413Z,952.00
2022-07-28T06:25:11.127Z,972.00
2022-07-28T06:26:11.131Z,992.00
2022-07-28T06:27:11.127Z,1048.00
2022-07-28T06:28:11.138Z,1060.00
2022-07-28T06:29:11.137Z,1076.00
2022-07-28T06:30:11.137Z,1092.00
2022-07-28T06:31:11.181Z,1144.00
2022-07-28T06:32:11.182Z,1144.00
2022-07-28T06:33:15.368Z,1176.00
2022-07-28T06:34:11.529Z,1192.00
2022-07-28T06:35:11.139Z,1196.00
2022-07-28T06:36:11.141Z,1192.00
2022-07-28T06:37:11.152Z,1164.00
2022-07-28T06:38:11.155Z,1204.00
2022-07-28T06:39:11.145Z,1196.00
2022-07-28T06:40:11.170Z,1192.00
2022-07-28T06:41:11.150Z,1200.00
2022-07-28T06:42:11.165Z,1192.00
2022-07-28T06:43:11.157Z,1152.00
2022-07-28T06:44:12.397Z,1144.00
2022-07-28T06:45:21.325Z,1176.00
2022-07-28T06:46:11.162Z,1156.00
2022-07-28T06:47:11.199Z,1164.00
2022-07-28T06:48:11.205Z,1120.00
2022-07-28T06:49:11.469Z,1084.00
2022-07-28T06:50:25.309Z,1068.00
2022-07-28T06:51:11.181Z,1056.00
2022-07-28T06:52:11.192Z,1064.00
2022-07-28T06:53:11.239Z,1052.00
2022-07-28T06:54:11.688Z,1056.00
2022-07-28T06:55:11.202Z,1060.00
2022-07-28T06:56:13.873Z,1068.00
2022-07-28T06:57:11.203Z,1080.00
2022-07-28T06:58:11.197Z,1092.00
2022-07-28T06:59:11.451Z,1112.00
2022-07-28T07:00:11.202Z,1108.00
2022-07-28T07:01:11.317Z,1108.00
2022-07-28T07:02:11.218Z,1168.00
2022-07-28T07:03:11.210Z,1208.00
2022-07-28T07:04:11.675Z,1236.00
2022-07-28T07:05:11.233Z,1248.00
2022-07-28T07:06:11.454Z,1264.00
2022-07-28T07:07:14.949Z,1268.00
2022-07-28T07:08:11.237Z,1292.00
2022-07-28T07:09:11.255Z,1300.00
2022-07-28T07:10:11.226Z,1328.00
2022-07-28T07:11:11.232Z,1308.00
2022-07-28T07:12:11.238Z,1324.00
2022-07-28T07:13:11.256Z,1332.00
2022-07-28T07:14:11.277Z,1320.00
2022-07-28T07:15:11.254Z,1284.00
2022-07-28T07:16:11.294Z,1280.00
2022-07-28T07:17:11.261Z,1288.00
2022-07-28T07:18:11.252Z,1320.00
2022-07-28T07:19:15.636Z,1312.00
2022-07-28T07:20:11.283Z,1356.00
2022-07-28T07:21:11.279Z,1300.00
2022-07-28T07:22:11.283Z,1360.00
2022-07-28T07:23:11.276Z,1328.00
2022-07-28T07:24:11.700Z,1336.00
2022-07-28T07:25:11.276Z,1336.00
2022-07-28T07:26:11.305Z,1328.00
2022-07-28T07:27:11.283Z,1340.00
2022-07-28T07:28:11.316Z,1364.00
2022-07-28T07:29:11.290Z,1372.00
2022-07-28T07:30:11.292Z,1392.00
2022-07-28T07:31:11.355Z,1420.00
2022-07-28T07:32:11.335Z,1424.00
2022-07-28T07:33:11.335Z,1436.00
2022-07-28T07:34:11.651Z,1436.00
2022-07-28T07:35:11.313Z,1432.00
2022-07-28T07:36:11.320Z,1416.00
2022-07-28T07:37:11.347Z,1408.00
2022-07-28T07:38:11.331Z,1392.00
2022-07-28T07:39:11.335Z,1388.00
2022-07-28T07:40:11.335Z,1348.00
2022-07-28T07:41:11.368Z,1368.00
2022-07-28T07:42:11.330Z,1392.00
2022-07-28T07:43:11.396Z,1400.00
2022-07-28T07:44:11.714Z,1432.00
2022-07-28T07:45:11.352Z,1460.00
2022-07-28T07:46:11.422Z,1488.00
2022-07-28T07:47:11.346Z,1464.00
2022-07-28T07:48:11.366Z,1500.00
2022-07-28T07:49:11.431Z,1524.00
2022-07-28T07:50:11.376Z,1572.00
2022-07-28T07:51:15.483Z,1616.00
2022-07-28T07:52:11.364Z,1652.00
2022-07-28T07:53:11.379Z,1652.00
2022-07-28T07:54:11.668Z,1656.00
2022-07-28T07:55:11.402Z,1744.00
2022-07-28T07:56:11.388Z,1720.00
2022-07-28T07:57:11.385Z,1684.00
2022-07-28T07:58:11.413Z,1680.00
2022-07-28T07:59:11.396Z,1668.00
2022-07-28T08:00:28.578Z,1656.00
2022-07-28T08:01:11.399Z,1580.00
2022-07-28T08:02:11.505Z,1576.00
2022-07-28T08:03:11.587Z,1532.00
2022-07-28T08:04:11.675Z,1488.00
2022-07-28T08:05:11.481Z,1468.00
2022-07-28T08:06:11.420Z,1508.00
2022-07-28T08:07:11.433Z,1516.00
2022-07-28T08:08:11.447Z,1540.00
2022-07-28T08:09:11.426Z,1584.00
2022-07-28T08:10:11.432Z,1628.00
2022-07-28T08:11:11.465Z,1640.00
2022-07-28T08:12:11.436Z,1656.00
2022-07-28T08:13:11.441Z,1664.00
2022-07-28T08:14:11.687Z,1696.00
2022-07-28T08:15:11.461Z,1736.00
2022-07-28T08:16:11.624Z,1748.00
2022-07-28T08:17:11.481Z,1788.00
2022-07-28T08:18:11.466Z,1824.00
2022-07-28T08:19:11.645Z,1820.00
2022-07-28T08:20:11.480Z,1824.00
2022-07-28T08:21:11.497Z,1840.00
2022-07-28T08:22:11.498Z,1840.00
2022-07-28T08:23:11.482Z,1792.00
2022-07-28T08:24:11.733Z,1728.00
2022-07-28T08:25:11.518Z,1752.00
2022-07-28T08:26:11.507Z,1760.00
2022-07-28T08:27:11.497Z,1708.00
2022-07-28T08:28:11.500Z,1708.00
2022-07-28T08:29:11.502Z,1760.00
2022-07-28T08:30:11.523Z,1720.00
2022-07-28T08:31:11.608Z,1816.00
2022-07-28T08:32:11.518Z,1892.00
2022-07-28T08:33:11.536Z,1916.00
2022-07-28T08:34:31.044Z,1980.00
2022-07-28T08:35:32.458Z,2052.00
2022-07-28T08:36:11.533Z,2124.00
2022-07-28T08:37:11.552Z,2132.00
2022-07-28T08:38:11.544Z,2120.00
2022-07-28T08:39:11.604Z,2212.00
2022-07-28T08:40:11.549Z,2252.00
2022-07-28T08:41:11.555Z,2168.00
2022-07-28T08:42:11.578Z,2136.00
2022-07-28T08:43:11.583Z,2124.00
2022-07-28T08:44:11.795Z,2056.00
2022-07-28T08:45:11.580Z,2040.00
2022-07-28T08:46:11.653Z,2100.00
2022-07-28T08:47:11.616Z,2128.00
2022-07-28T08:48:11.594Z,2148.00
2022-07-28T08:49:12.195Z,2128.00
2022-07-28T08:50:11.589Z,2120.00
2022-07-28T08:51:11.603Z,2020.00
2022-07-28T08:52:11.612Z,1968.00
2022-07-28T08:53:11.619Z,1852.00
2022-07-28T08:54:12.038Z,1768.00
2022-07-28T08:55:15.112Z,1736.00
2022-07-28T08:56:11.631Z,1748.00
2022-07-28T08:57:11.634Z,1772.00
2022-07-28T08:58:11.639Z,1784.00
2022-07-28T08:59:11.635Z,1848.00
2022-07-28T09:00:11.667Z,1976.00
2022-07-28T09:01:11.644Z,2136.00
2022-07-28T09:02:11.730Z,2236.00
2022-07-28T09:03:11.723Z,2288.00
2022-07-28T09:04:11.915Z,2360.00
2022-07-28T09:05:11.697Z,2368.00
2022-07-28T09:06:11.667Z,2360.00
2022-07-28T09:07:11.680Z,2240.00
2022-07-28T09:08:11.687Z,2072.00
2022-07-28T09:09:11.699Z,2112.00
2022-07-28T09:10:11.699Z,2228.00
2022-07-28T09:11:11.709Z,2156.00
2022-07-28T09:12:11.694Z,2124.00
2022-07-28T09:13:13.325Z,2140.00
2022-07-28T09:14:11.951Z,2160.00
2022-07-28T09:15:11.719Z,2148.00
2022-07-28T09:16:11.815Z,2204.00
2022-07-28T09:17:11.725Z,2328.00
2022-07-28T09:18:11.741Z,2476.00
2022-07-28T09:19:11.729Z,2416.00
2022-07-28T09:20:11.881Z,2388.00
2022-07-28T09:21:11.765Z,2460.00
2022-07-28T09:22:11.752Z,2520.00
2022-07-28T09:23:42.565Z,2512.00
2022-07-28T09:24:11.905Z,2456.00
2022-07-28T09:25:11.775Z,2516.00
2022-07-28T09:26:12.533Z,2528.00
2022-07-28T09:27:11.807Z,2464.00
2022-07-28T09:28:11.783Z,2348.00
2022-07-28T09:29:11.787Z,2296.00
2022-07-28T09:30:11.805Z,2280.00
2022-07-28T09:31:11.843Z,2296.00
2022-07-28T09:32:11.814Z,2316.00
2022-07-28T09:33:11.795Z,2332.00
2022-07-28T09:34:12.164Z,2352.00
2022-07-28T09:35:11.807Z,2372.00
2022-07-28T09:36:11.826Z,2408.00
2022-07-28T09:37:11.829Z,2408.00
2022-07-28T09:38:11.825Z,2444.00
2022-07-28T09:39:11.835Z,2460.00
2022-07-28T09:40:11.877Z,2260.00
2022-07-28T09:41:11.871Z,2312.00
2022-07-28T09:42:11.864Z,2240.00
2022-07-28T09:43:11.855Z,2220.00
2022-07-28T09:44:12.138Z,2172.00
2022-07-28T09:45:25.773Z,2116.00
2022-07-28T09:46:12.046Z,2072.00
2022-07-28T09:47:12.097Z,2004.00
2022-07-28T09:48:12.082Z,1928.00
2022-07-28T09:49:11.970Z,1908.00
2022-07-28T09:50:11.879Z,1820.00
2022-07-28T09:51:11.896Z,1704.00
2022-07-28T09:52:11.904Z,1652.00
2022-07-28T09:53:11.910Z,1628.00
2022-07-28T09:54:12.277Z,1504.00
2022-07-28T09:55:11.924Z,1360.00
2022-07-28T09:56:11.919Z,1372.00
2022-07-28T09:57:11.939Z,1388.00
2022-07-28T09:58:11.923Z,1372.00
2022-07-28T09:59:12.859Z,1312.00
2022-07-28T10:00:11.959Z,1332.00
2022-07-28T10:01:12.316Z,1484.00
2022-07-28T10:02:12.156Z,1604.00
2022-07-28T10:03:11.992Z,1628.00
2022-07-28T10:04:11.955Z,1636.00
2022-07-28T10:05:11.964Z,1648.00
2022-07-28T10:06:11.974Z,1660.00
2022-07-28T10:07:11.995Z,1668.00
2022-07-28T10:08:11.989Z,1688.00
2022-07-28T10:09:11.991Z,1668.00
2022-07-28T10:10:11.995Z,1656.00
2022-07-28T10:11:12.012Z,1656.00
2022-07-28T10:12:12.003Z,1656.00
2022-07-28T10:13:12.044Z,1680.00
2022-07-28T10:14:12.265Z,1740.00
2022-07-28T10:15:12.008Z,1804.00
2022-07-28T10:16:12.052Z,1828.00
2022-07-28T10:17:12.020Z,1844.00
2022-07-28T10:18:12.056Z,1940.00
2022-07-28T10:19:12.041Z,1972.00
2022-07-28T10:20:12.043Z,1960.00
2022-07-28T10:21:12.050Z,1936.00
2022-07-28T10:22:12.051Z,1996.00
2022-07-28T10:23:12.072Z,2044.00
2022-07-28T10:24:12.493Z,2104.00
2022-07-28T10:25:12.059Z,2144.00
2022-07-28T10:26:13.326Z,2212.00
2022-07-28T10:27:12.066Z,2268.00
2022-07-28T10:28:12.082Z,2304.00
2022-07-28T10:29:12.090Z,2320.00
2022-07-28T10:30:12.098Z,2280.00
2022-07-28T10:31:12.212Z,2276.00
2022-07-28T10:32:12.095Z,2236.00
2022-07-28T10:33:12.097Z,2188.00
2022-07-28T10:34:16.167Z,2196.00
2022-07-28T10:35:12.120Z,2276.00
2022-07-28T10:36:12.118Z,2348.00
2022-07-28T10:37:12.130Z,2384.00
2022-07-28T10:38:12.713Z,2368.00
2022-07-28T10:39:12.139Z,2488.00
2022-07-28T10:40:12.147Z,2684.00
2022-07-28T10:41:12.150Z,3068.00
2022-07-28T10:42:12.155Z,3668.00
2022-07-28T10:43:12.178Z,4560.00
2022-07-28T10:44:12.537Z,5904.00
2022-07-28T10:45:12.207Z,8056.00
2022-07-28T10:46:16.063Z,11952.00
2022-07-28T10:47:18.146Z,21376.00
2022-07-28T10:48:12.195Z,33344.00
2022-07-28T10:49:12.352Z,42944.00
2022-07-28T10:50:12.199Z,48608.00
2022-07-28T10:51:12.211Z,52064.00
2022-07-28T10:52:30.883Z,51520.00
2022-07-28T10:53:12.230Z,52256.00
2022-07-28T10:54:12.566Z,53920.00
2022-07-28T10:55:12.254Z,56064.00
2022-07-28T10:56:12.270Z,56224.00
2022-07-28T10:57:12.258Z,55776.00
2022-07-28T10:58:12.530Z,56704.00
2022-07-28T10:59:12.282Z,56896.00
2022-07-28T11:00:13.634Z,26112.00
2022-07-28T11:01:26.749Z,62816.00
2022-07-28T11:02:12.493Z,64576.00
2022-07-28T11:03:13.768Z,66624.00
2022-07-28T11:04:12.699Z,66240.00
2022-07-28T11:05:12.366Z,65440.00
2022-07-28T11:06:12.367Z,64704.00
2022-07-28T11:07:12.410Z,64832.00
2022-07-28T11:08:12.401Z,65568.00
2022-07-28T11:09:12.419Z,67424.00
2022-07-28T11:10:12.454Z,69312.00
2022-07-28T11:11:12.443Z,72480.00
2022-07-28T11:12:12.467Z,73600.00
2022-07-28T11:13:14.408Z,67456.00
2022-07-28T11:14:12.775Z,44384.00
2022-07-28T11:15:15.736Z,71840.00
2022-07-28T11:16:12.520Z,75104.00
2022-07-28T11:17:12.597Z,2028.00
2022-07-28T11:18:12.571Z,1540.00
2022-07-28T11:19:36.529Z,1664.00
2022-07-28T11:20:16.794Z,1736.00
2022-07-28T11:21:16.552Z,2004.00
2022-07-28T11:22:12.631Z,3092.00
2022-07-28T11:23:12.647Z,9448.00
2022-07-28T11:24:13.128Z,78112.00
2022-07-28T11:25:20.701Z,71040.00
2022-07-28T11:26:12.694Z,64800.00
2022-07-28T11:27:12.696Z,57760.00
2022-07-28T11:28:12.719Z,44672.00
2022-07-28T11:29:12.740Z,26304.00
2022-07-28T11:30:12.849Z,16704.00
2022-07-28T11:31:12.803Z,11588.00
2022-07-28T11:32:12.856Z,8480.00
2022-07-28T11:33:12.784Z,7216.00
2022-07-28T11:34:13.116Z,3960.00
2022-07-28T11:35:12.828Z,2384.00
2022-07-28T11:36:12.885Z,2480.00
2022-07-28T11:37:14.879Z,4560.00
2022-07-28T11:38:12.871Z,3912.00
2022-07-28T11:39:12.894Z,4580.00
2022-07-28T11:40:12.948Z,3948.00
2022-07-28T11:41:12.913Z,1804.00
2022-07-28T11:42:12.919Z,2160.00
2022-07-28T11:43:12.927Z,2852.00
2022-07-28T11:44:13.194Z,3416.00
2022-07-28T11:45:12.950Z,3248.00
2022-07-28T11:46:13.026Z,3232.00
2022-07-28T11:47:12.974Z,3220.00
2022-07-28T11:48:12.983Z,3196.00
2022-07-28T11:49:14.700Z,3008.00
2022-07-28T11:50:13.142Z,2792.00
2022-07-28T11:51:13.028Z,2588.00
2022-07-28T11:52:13.059Z,2488.00
2022-07-28T11:53:13.047Z,2472.00
2022-07-28T11:54:13.350Z,2440.00
2022-07-28T11:55:13.070Z,2412.00
2022-07-28T11:56:13.077Z,2364.00
2022-07-28T11:57:13.792Z,2332.00
2022-07-28T11:58:13.116Z,2376.00
2022-07-28T11:59:13.133Z,2384.00
2022-07-28T12:00:13.129Z,2276.00
2022-07-28T12:01:13.431Z,2148.00
2022-07-28T12:02:13.184Z,2024.00
2022-07-28T12:03:13.151Z,2016.00
2022-07-28T12:04:13.952Z,2000.00
2022-07-28T12:05:13.286Z,2112.00
2022-07-28T12:06:13.182Z,2148.00
2022-07-28T12:07:13.209Z,2048.00
2022-07-28T12:08:13.210Z,1972.00
2022-07-28T12:09:13.314Z,1840.00
2022-07-28T12:10:26.003Z,1780.00
2022-07-28T12:11:13.234Z,1760.00
2022-07-28T12:12:13.240Z,1720.00
2022-07-28T12:13:13.249Z,1700.00
2022-07-28T12:14:13.752Z,1676.00
2022-07-28T12:15:13.296Z,1596.00
2022-07-28T12:16:13.376Z,1564.00
2022-07-28T12:17:13.331Z,1536.00
2022-07-28T12:18:13.304Z,1520.00
2022-07-28T12:19:13.340Z,1584.00
2022-07-28T12:20:15.288Z,1664.00
2022-07-28T12:21:13.338Z,1696.00
2022-07-28T12:22:15.580Z,1712.00
2022-07-28T12:23:13.364Z,1736.00
2022-07-28T12:24:13.373Z,1688.00
2022-07-28T12:25:14.059Z,1564.00
2022-07-28T12:26:13.392Z,1536.00
2022-07-28T12:27:13.395Z,1588.00
2022-07-28T12:28:13.396Z,1568.00
2022-07-28T12:29:13.418Z,1568.00
2022-07-28T12:30:13.407Z,1588.00
2022-07-28T12:31:13.438Z,1656.00